Flight Track Log - Related Links

Times and Time Zones

All times are in EDT time to prevent confusion due to time zone crossing. See the SWA3247 flight status page for this flight to view local times or setup timezone preferences in your user account.

Time Position Orientation Groundspeed Altitude Reporting Facility
EDT Latitude Longitude Course Direction KTS MPH feet Rate Location/Type
Wed 08:38:00 PM 36.0767 -115.1014 92° East 184 212 3,200  Level Los Angeles Center
Wed 08:38:31 PM 36.0758 -115.0672 92° East 197 227 3,700 1,164 Climbing Los Angeles Center
Wed 08:39:07 PM 36.0767 -115.0133 89° East 229 264 4,500 2,082 Climbing Los Angeles Center
Wed 08:40:09 PM 36.0792 -114.9150 88° East 272 313 7,100 2,565 Climbing Los Angeles Center
Wed 08:41:11 PM 36.0975 -114.8156 77° East 295 339 9,800 1,984 Climbing Los Angeles Center
Wed 08:42:13 PM 36.1167 -114.7092 77° East 315 362 11,200 1,790 Climbing Los Angeles Center
Wed 08:43:15 PM 36.1375 -114.5853 78° East 363 418 13,500 2,471 Climbing Los Angeles Center
Wed 08:44:29 PM 36.1608 -114.4350 79° East 370 426 16,800 2,759 Climbing Los Angeles Center
Wed 08:45:32 PM 36.1867 -114.2814 78° East 379 436 19,800 2,400 Climbing Los Angeles Center
Wed 08:46:34 PM 36.2047 -114.1453 81° East 398 458 21,800 1,632 Climbing Los Angeles Center
Wed 08:47:48 PM 36.2222 -114.0039 81° East 412 474 23,500 1,588 Climbing Los Angeles Center
Wed 08:48:50 PM 36.2425 -113.8261 82° East 432 497 25,400 1,824 Climbing Los Angeles Center
Wed 08:49:53 PM 36.2639 -113.6414 82° East 450 518 27,300 1,632 Climbing Los Angeles Center
Wed 08:50:55 PM 36.2825 -113.4858 82° East 456 525 28,800 1,694 Climbing Los Angeles Center
Wed 08:51:57 PM 36.3000 -113.3272 82° East 463 533 30,800 1,721 Climbing Los Angeles Center
Wed 08:53:11 PM 36.3253 -113.1875 77° East 454 522 32,700 1,721 Climbing Los Angeles Center
Wed 08:54:13 PM 36.3956 -112.9986 65° Northeast 434 499 34,700 1,548 Climbing Los Angeles Center
Wed 08:55:15 PM 36.4472 -112.8625 65° Northeast 436 502 35,900 1,113 Climbing Los Angeles Center
Wed 08:56:17 PM 36.4969 -112.7256 66° East 436 502 37,000 532 Climbing Los Angeles Center
Wed 08:57:19 PM 36.5469 -112.5892 65° Northeast 436 502 37,000  Level Los Angeles Center
Wed 08:58:21 PM 36.5958 -112.4553 66° East 431 496 37,000  Level Los Angeles Center
Wed 08:59:24 PM 36.6553 -112.2917 66° East 434 499 37,000  Level Los Angeles Center
Wed 09:00:26 PM 36.7044 -112.1556 66° East 433 498 37,000  Level Los Angeles Center
Wed 09:01:28 PM 36.7533 -112.0203 66° East 431 496 37,000  Level Los Angeles Center
Wed 09:02:30 PM 36.8036 -111.8831 65° Northeast 435 501 37,000  Level Los Angeles Center
Wed 09:03:32 PM 36.8500 -111.7503 66° East 426 490 37,000  Level Los Angeles Center
Wed 09:04:33 PM 36.8889 -111.6431 66° East 424 488 37,000  Level Los Angeles Center
Wed 09:05:31 PM 36.9489 -111.4797 65° Northeast 427 491 37,000  Level Denver Center
Wed 09:06:33 PM 36.9964 -111.3469 66° East 423 487 37,000  Level Denver Center
Wed 09:07:35 PM 37.0472 -111.1917 68° East 411 473 37,000  Level Denver Center
Wed 09:08:37 PM 37.0933 -111.0608 66° East 412 474 37,000  Level Denver Center
Wed 09:09:39 PM 37.1389 -110.9294 66° East 412 474 37,000  Level Denver Center
Wed 09:10:41 PM 37.1833 -110.7997 67° East 408 470 37,000  Level Denver Center
Wed 09:11:42 PM 37.2286 -110.6686 67° East 410 472 37,000  Level Denver Center
Wed 09:12:44 PM 37.2747 -110.5342 67° East 420 483 37,000  Level Denver Center
Wed 09:13:46 PM 37.3289 -110.3750 67° East 416 479 37,000  Level Denver Center
Wed 09:14:48 PM 37.3731 -110.2447 67° East 408 470 37,000  Level Denver Center
Wed 09:15:50 PM 37.4211 -110.1028 67° East 413 475 37,000  Level Denver Center
Wed 09:16:52 PM 37.4633 -109.9781 67° East 407 468 37,000  Level Denver Center
Wed 09:17:54 PM 37.5056 -109.8514 67° East 408 470 37,000  Level Denver Center
Wed 09:18:56 PM 37.5547 -109.7039 67° East 408 470 37,000  Level Denver Center
Wed 09:19:58 PM 37.5972 -109.5764 67° East 410 472 37,000  Level Denver Center
Wed 09:21:00 PM 37.6456 -109.4286 68° East 408 470 37,000  Level Denver Center
Wed 09:22:02 PM 37.6878 -109.3033 67° East 406 467 37,000  Level Denver Center
Wed 09:23:04 PM 37.7353 -109.1558 68° East 405 466 37,000  Level Denver Center
Wed 09:24:06 PM 37.7756 -109.0303 68° East 403 464 37,000  Level Denver Center
Wed 09:25:08 PM 37.8231 -108.8814 68° East 407 468 37,000  Level Denver Center
Wed 09:26:10 PM 37.8642 -108.7544 68° East 406 467 37,000  Level Denver Center
Wed 09:27:12 PM 37.9047 -108.6250 68° East 410 472 37,000  Level Denver Center
Wed 09:28:14 PM 37.9514 -108.4789 68° East 405 466 37,000  Level Denver Center
Wed 09:29:16 PM 37.9922 -108.3506 68° East 407 468 37,000  Level Denver Center
Wed 09:30:18 PM 38.0383 -108.1989 69° East 412 474 37,000  Level Denver Center
Wed 09:31:20 PM 38.0842 -108.0553 68° East 408 470 37,000  Level Denver Center
Wed 09:32:22 PM 38.1236 -107.9283 68° East 405 466 37,000  Level Denver Center
Wed 09:33:24 PM 38.1628 -107.7997 69° East 409 471 37,000  Level Denver Center
Wed 09:34:26 PM 38.2086 -107.6517 68° East 405 466 37,000  Level Denver Center
Wed 09:35:28 PM 38.2483 -107.5233 68° East 407 468 37,000  Level Denver Center
Wed 09:36:30 PM 38.2928 -107.3744 69° East 406 467 37,000  Level Denver Center
Wed 09:37:32 PM 38.3311 -107.2481 69° East 402 463 37,000  Level Denver Center
Wed 09:38:34 PM 38.3750 -107.1028 69° East 394 453 37,000  Level Denver Center
Wed 09:39:36 PM 38.4150 -106.9714 69° East 397 457 37,000  Level Denver Center
Wed 09:40:37 PM 38.4525 -106.8431 70° East 388 447 37,000  Level Denver Center
Wed 09:41:39 PM 38.4922 -106.7122 69° East 394 453 37,000  Level Denver Center
Wed 09:42:41 PM 38.5311 -106.5792 69° East 401 461 37,000  Level Denver Center
Wed 09:43:43 PM 38.5697 -106.4472 69° East 399 459 37,000  Level Denver Center
Wed 09:44:45 PM 38.6164 -106.2878 69° East 401 461 37,000  Level Denver Center
Wed 09:45:47 PM 38.6500 -106.1708 70° East 402 463 37,000  Level Denver Center
Wed 09:46:49 PM 38.6975 -106.0094 69° East 406 467 37,000  Level Denver Center
Wed 09:47:51 PM 38.7347 -105.8767 70° East 399 459 37,000  Level Denver Center
Wed 09:48:53 PM 38.7739 -105.7422 69° East 403 464 37,000  Level Denver Center
Wed 09:49:55 PM 38.8136 -105.6058 69° East 408 470 37,000  Level Denver Center
Wed 09:50:57 PM 38.8514 -105.4681 71° East 412 474 37,000  Level Denver Center
Wed 09:51:59 PM 38.8997 -105.2964 70° East 425 489 37,000  Level Denver Center
Wed 09:53:01 PM 38.9394 -105.1553 70° East 426 490 37,000  Level Denver Center
Wed 09:54:03 PM 38.9864 -105.0214 66° East 415 478 37,000  Level Denver Center
Wed 09:55:05 PM 39.0314 -104.8906 66° East 407 468 37,000  Level Denver Center
Wed 09:56:07 PM 39.0775 -104.7611 65° Northeast 403 464 37,000  Level Denver Center
Wed 09:57:09 PM 39.1214 -104.6306 67° East 399 459 37,000  Level Denver Center
Wed 09:58:11 PM 39.1647 -104.4633 71° East 413 475 37,000  Level Denver Center
Wed 09:59:13 PM 39.2011 -104.3239 71° East 414 476 37,000  Level Denver Center
Wed 10:00:15 PM 39.2389 -104.1847 71° East 415 478 37,000  Level Denver Center
Wed 10:01:17 PM 39.2758 -104.0464 71° East 412 474 37,000  Level Denver Center
Wed 10:02:19 PM 39.3114 -103.9072 72° East 411 473 37,000  Level Denver Center
Wed 10:03:21 PM 39.3553 -103.7397 71° East 412 474 37,000  Level Denver Center
Wed 10:04:23 PM 39.3922 -103.6019 71° East 409 471 37,000  Level Denver Center
Wed 10:05:25 PM 39.4272 -103.4608 72° East 413 475 37,000  Level Denver Center
Wed 10:06:28 PM 39.4642 -103.3217 71° East 411 473 37,000  Level Denver Center
Wed 10:07:29 PM 39.4981 -103.1792 73° East 416 479 37,000  Level Denver Center
Wed 10:08:31 PM 39.5364 -103.0078 74° East 414 476 37,000  Level Denver Center
Wed 10:09:33 PM 39.5678 -102.8656 74° East 412 474 37,000  Level Denver Center
Wed 10:10:35 PM 39.5983 -102.7231 74° East 411 473 37,000  Level Denver Center
Wed 10:11:37 PM 39.6319 -102.5772 73° East 410 472 37,000  Level Denver Center
Wed 10:12:39 PM 39.6608 -102.4386 75° East 415 478 37,000  Level Denver Center
Wed 10:13:41 PM 39.6961 -102.2789 74° East 415 478 37,000  Level Denver Center
Wed 10:14:43 PM 39.7264 -102.1403 74° East 417 480 37,000  Level Denver Center
Wed 10:15:45 PM 39.7603 -101.9769 75° East 419 482 37,000  Level Denver Center
Wed 10:16:47 PM 39.7903 -101.8400 74° East 415 478 37,000  Level Denver Center
Wed 10:17:48 PM 39.8236 -101.6769 75° East 417 480 37,000  Level Denver Center
Wed 10:18:50 PM 39.8528 -101.5403 74° East 412 474 37,000  Level Denver Center
Wed 10:19:52 PM 39.8761 -101.4258 75° East 411 473 37,000  Level Denver Center
Wed 10:20:54 PM 39.9142 -101.2428 75° East 411 473 37,000  Level Denver Center
Wed 10:21:56 PM 39.9461 -101.0836 75° East 409 471 37,000  Level Denver Center
Wed 10:22:58 PM 39.9742 -100.9511 75° East 401 461 37,000  Level Denver Center
Wed 10:24:00 PM 40.0056 -100.7939 75° East 403 464 37,000  Level Denver Center
Wed 10:25:01 PM 40.0325 -100.6578 75° East 406 467 37,000  Level Denver Center
Wed 10:26:03 PM 40.0594 -100.5225 75° East 404 465 37,000  Level Denver Center
Wed 10:27:05 PM 40.0903 -100.3644 76° East 404 465 37,000  Level Denver Center
Wed 10:28:07 PM 40.1172 -100.2292 75° East 405 466 37,000  Level Denver Center
Wed 10:29:09 PM 40.1486 -100.0708 75° East 405 466 37,000  Level Denver Center
Wed 10:30:10 PM 40.1744 -99.9336 76° East 407 468 37,000  Level Denver Center
Wed 10:31:12 PM 40.2064 -99.7722 75° East 407 468 37,000  Level Denver Center
Wed 10:32:14 PM 40.2331 -99.6286 76° East 408 470 37,000  Level Denver Center
Wed 10:33:15 PM 40.2600 -99.4839 76° East 408 470 37,000  Level Denver Center
Wed 10:34:17 PM 40.2875 -99.3383 76° East 413 475 37,000  Level Denver Center
Wed 10:35:19 PM 40.3147 -99.1903 76° East 420 483 37,000  Level Denver Center
Wed 10:36:13 PM 40.3419 -99.0436 76° East 420 483 37,000  Level Minneapolis Center
Wed 10:37:14 PM 40.3692 -98.8939 77° East 424 488 37,000  Level Minneapolis Center
Wed 10:38:16 PM 40.3967 -98.7453 76° East 422 486 37,000  Level Minneapolis Center
Wed 10:39:17 PM 40.4231 -98.5958 77° East 422 486 37,000  Level Minneapolis Center
Wed 10:40:18 PM 40.4500 -98.4489 76° East 419 482 37,000  Level Minneapolis Center
Wed 10:41:19 PM 40.4758 -98.2983 77° East 422 486 37,000  Level Minneapolis Center
Wed 10:42:21 PM 40.5022 -98.1503 77° East 421 484 37,000  Level Minneapolis Center
Wed 10:43:22 PM 40.5339 -97.9697 77° East 423 487 37,000  Level Minneapolis Center
Wed 10:44:23 PM 40.5594 -97.8203 77° East 422 486 37,000  Level Minneapolis Center
Wed 10:45:24 PM 40.5800 -97.6992 77° East 425 489 37,000  Level Minneapolis Center
Wed 10:46:26 PM 40.6117 -97.5156 77° East 428 493 37,000  Level Minneapolis Center
Wed 10:47:27 PM 40.6400 -97.3494 77° East 429 494 37,000  Level Minneapolis Center
Wed 10:48:28 PM 40.6650 -97.1950 78° East 430 495 37,000  Level Minneapolis Center
Wed 10:49:30 PM 40.6906 -97.0414 78° East 431 496 37,000  Level Minneapolis Center
Wed 10:50:31 PM 40.7150 -96.8889 78° East 429 494 37,000  Level Minneapolis Center
Wed 10:51:32 PM 40.7408 -96.7367 77° East 428 493 37,000  Level Minneapolis Center
Wed 10:52:33 PM 40.7647 -96.5839 78° East 428 493 37,000  Level Minneapolis Center
Wed 10:53:35 PM 40.7892 -96.4317 78° East 427 491 37,000  Level Minneapolis Center
Wed 10:54:36 PM 40.8139 -96.2800 78° East 426 490 37,000  Level Minneapolis Center
Wed 10:55:37 PM 40.8375 -96.1286 78° East 424 488 37,000  Level Minneapolis Center
Wed 10:56:39 PM 40.8653 -95.9461 79° East 426 490 37,000  Level Minneapolis Center
Wed 10:57:40 PM 40.8886 -95.7931 79° East 427 491 37,000  Level Minneapolis Center
Wed 10:58:41 PM 40.9131 -95.6378 78° East 432 497 37,000  Level Minneapolis Center
Wed 10:59:42 PM 40.9358 -95.4797 79° East 438 504 37,000  Level Minneapolis Center
Wed 11:00:43 PM 40.9603 -95.3231 78° East 439 505 37,000  Level Minneapolis Center
Wed 11:01:45 PM 40.9844 -95.1656 78° East 438 504 37,000  Level Minneapolis Center
Wed 11:02:46 PM 41.0069 -95.0097 79° East 435 501 37,000  Level Minneapolis Center
Wed 11:03:47 PM 41.0286 -94.8528 80° East 435 501 37,000  Level Minneapolis Center
Wed 11:04:48 PM 41.0558 -94.6661 79° East 432 497 37,000  Level Minneapolis Center
Wed 11:05:49 PM 41.0753 -94.5308 79° East 431 496 37,000  Level Minneapolis Center
Wed 11:06:51 PM 41.0956 -94.3769 80° East 429 494 37,000  Level Minneapolis Center
Wed 11:07:52 PM 41.1175 -94.2231 79° East 428 493 37,000  Level Minneapolis Center
Wed 11:08:53 PM 41.1439 -94.0386 79° East 428 493 37,000  Level Minneapolis Center
Wed 11:09:54 PM 41.1631 -93.8828 81° East 429 494 37,000  Level Minneapolis Center
Wed 11:10:56 PM 41.1850 -93.7261 79° East 432 497 37,000  Level Minneapolis Center
Wed 11:11:57 PM 41.2069 -93.5689 79° East 435 501 37,000  Level Minneapolis Center
Wed 11:13:10 PM 41.2278 -93.4097 80° East 439 505 37,000  Level Minneapolis Center
Wed 11:14:12 PM 41.2531 -93.2206 80° East 437 503 37,000  Level Minneapolis Center
Wed 11:15:13 PM 41.2739 -93.0606 80° East 440 506 37,000  Level Minneapolis Center
Wed 11:16:14 PM 41.2947 -92.8986 80° East 445 512 37,000  Level Minneapolis Center
Wed 11:17:06 PM 41.3153 -92.7350 80° East 447 514 37,000  Level Chicago Center
Wed 11:18:07 PM 41.3344 -92.5708 81° East 450 518 37,000  Level Chicago Center
Wed 11:19:08 PM 41.3542 -92.4081 81° East 448 516 37,000  Level Chicago Center
Wed 11:20:10 PM 41.3750 -92.2422 80° East 450 518 37,000  Level Chicago Center
Wed 11:21:11 PM 41.4053 -92.0828 76° East 450 518 37,000  Level Chicago Center
Wed 11:22:12 PM 41.4375 -91.9219 75° East 454 522 37,000  Level Chicago Center
Wed 11:23:13 PM 41.4672 -91.7258 79° East 455 524 37,000  Level Chicago Center
Wed 11:24:15 PM 41.4914 -91.5639 79° East 453 521 37,000  Level Chicago Center
Wed 11:25:16 PM 41.5158 -91.4000 79° East 455 524 37,000  Level Chicago Center
Wed 11:26:17 PM 41.5400 -91.2350 79° East 459 528 37,000  Level Chicago Center
Wed 11:27:18 PM 41.5647 -91.0708 79° East 459 528 37,000  Level Chicago Center
Wed 11:28:19 PM 41.5892 -90.9050 79° East 462 532 37,000  Level Chicago Center
Wed 11:29:20 PM 41.6133 -90.7378 79° East 464 534 37,000  Level Chicago Center
Wed 11:30:22 PM 41.6386 -90.5536 80° East 463 533 37,000  Level Chicago Center
Wed 11:31:23 PM 41.6625 -90.3825 79° East 466 536 37,000  Level Chicago Center
Wed 11:32:24 PM 41.6869 -90.2122 79° East 465 535 37,000  Level Chicago Center
Wed 11:33:25 PM 41.7100 -90.0411 80° East 465 535 37,000 148 Level Chicago Center
Wed 11:34:26 PM 41.7350 -89.8667 79° East 473 544 37,300 836 Climbing Chicago Center
Wed 11:35:27 PM 41.7578 -89.6917 80° East 476 548 38,700 836 Climbing Chicago Center
Wed 11:36:28 PM 41.7844 -89.4931 80° East 474 545 39,000 148 Climbing Chicago Center
Wed 11:37:29 PM 41.8064 -89.3189 80° East 473 544 39,000  Level Chicago Center
Wed 11:38:30 PM 41.8283 -89.1467 80° East 473 544 39,000  Level Chicago Center
Wed 11:39:31 PM 41.8503 -88.9747 80° East 470 541 39,000  Level Chicago Center
Wed 11:40:32 PM 41.8717 -88.8000 81° East 474 545 39,000  Level Chicago Center
Wed 11:41:33 PM 41.8933 -88.6256 80° East 475 547 39,000  Level Chicago Center
Wed 11:42:34 PM 41.9153 -88.4522 80° East 473 544 39,000  Level Chicago Center
Wed 11:43:35 PM 41.9364 -88.2761 81° East 475 547 39,000 -246 Level Chicago Center
Wed 11:44:36 PM 41.9589 -88.0975 80° East 481 554 38,500 -787 Descending Chicago Center
Wed 11:45:37 PM 41.9836 -87.8836 81° East 483 556 37,400 -744 Descending Chicago Center
Wed 11:46:37 PM 42.0033 -87.7050 81° East 483 556 37,000 -198 Descending Chicago Center
Wed 11:47:38 PM 42.0242 -87.5283 81° East 480 552 37,000  Level Chicago Center
Wed 11:48:39 PM 42.0442 -87.3531 81° East 477 549 37,000  Level Chicago Center
Wed 11:49:40 PM 42.0636 -87.1767 81° East 478 550 37,000  Level Chicago Center
Wed 11:50:41 PM 42.0833 -87.0025 81° East 475 547 37,000  Level Chicago Center
Wed 11:51:42 PM 42.1022 -86.8267 82° East 476 548 37,000  Level Chicago Center
Wed 11:52:43 PM 42.1200 -86.6508 82° East 478 550 37,000  Level Chicago Center
Wed 11:53:44 PM 42.1386 -86.4742 82° East 478 550 37,000  Level Chicago Center
Wed 11:54:44 PM 42.1578 -86.2969 82° East 478 550 37,000  Level Chicago Center
Wed 11:55:45 PM 42.1758 -86.1189 82° East 478 550 37,000  Level Chicago Center
Wed 11:56:46 PM 42.1953 -85.9211 82° East 476 548 37,000  Level Chicago Center
Wed 11:57:47 PM 42.2119 -85.7436 83° East 480 552 37,000  Level Chicago Center
Wed 11:58:48 PM 42.2292 -85.5669 82° East 480 552 37,000  Level Chicago Center
Wed 11:59:48 PM 42.2461 -85.3872 83° East 485 558 37,000  Level Chicago Center
Thu 12:01:15 AM 42.2708 -85.1342 82° East 491 565 37,000  Level Chicago Center
Thu 12:02:15 AM 42.2881 -84.9550 83° East 487 560 37,000  Level Chicago Center
Thu 12:03:16 AM 42.3028 -84.7781 84° East 478 550 37,000  Level Chicago Center
Thu 12:04:16 AM 42.3186 -84.6039 83° East 473 544 37,000  Level Chicago Center
Thu 12:05:17 AM 42.3344 -84.4289 83° East 473 544 37,000  Level Chicago Center
Thu 12:06:19 AM 42.3478 -84.2414 84° East 474 545 37,000  Level Cleveland Center
Thu 12:07:19 AM 42.3617 -84.0650 84° East 474 545 37,000  Level Cleveland Center
Thu 12:08:19 AM 42.3772 -83.8889 83° East 474 545 37,000  Level Cleveland Center
Thu 12:09:19 AM 42.3925 -83.7153 83° East 474 545 37,000  Level Cleveland Center
Thu 12:10:19 AM 42.4036 -83.5331 85° East 474 545 37,000  Level Cleveland Center
Thu 12:11:19 AM 42.4189 -83.3394 84° East 480 552 37,000  Level Cleveland Center
Thu 12:12:19 AM 42.4336 -83.1544 84° East 481 554 37,000  Level Cleveland Center
Thu 12:13:19 AM 42.4456 -82.9778 85° East 481 554 37,000  Level Cleveland Center
Thu 12:14:19 AM 42.4597 -82.7953 84° East 481 554 37,000  Level Cleveland Center
Thu 12:15:19 AM 42.4736 -82.6100 84° East 481 554 37,000  Level Cleveland Center
Thu 12:16:19 AM 42.4850 -82.4303 85° East 481 554 37,000  Level Cleveland Center
Thu 12:17:19 AM 42.4961 -82.2503 85° East 481 554 37,000  Level Cleveland Center
Thu 12:18:19 AM 42.5089 -82.0675 85° East 481 554 37,000  Level Cleveland Center
Thu 12:19:19 AM 42.5194 -81.8875 85° East 481 554 37,000  Level Cleveland Center
Thu 12:20:19 AM 42.5336 -81.7244 83° East 481 554 37,000  Level Cleveland Center
Thu 12:21:19 AM 42.5436 -81.5442 86° East 481 554 37,000  Level Cleveland Center
Thu 12:22:19 AM 42.5533 -81.3611 86° East 481 554 37,000  Level Cleveland Center
Thu 12:23:19 AM 42.5672 -81.1639 84° East 476 548 37,000  Level Cleveland Center
Thu 12:24:19 AM 42.5761 -80.9836 86° East 481 554 37,000  Level Cleveland Center
Thu 12:25:19 AM 42.5872 -80.8031 85° East 481 554 37,000  Level Cleveland Center
Thu 12:26:19 AM 42.5956 -80.6256 86° East 476 548 37,000  Level Cleveland Center
Thu 12:27:19 AM 42.6061 -80.4422 85° East 476 548 37,000  Level Cleveland Center
Thu 12:28:19 AM 42.6139 -80.2617 87° East 476 548 37,000  Level Cleveland Center
Thu 12:29:19 AM 42.6239 -80.0808 86° East 481 554 37,000  Level Cleveland Center
Thu 12:30:19 AM 42.6314 -79.9200 86° East 481 554 37,000  Level Cleveland Center
Thu 12:31:19 AM 42.6406 -79.7392 86° East 476 548 37,000  Level Cleveland Center
Thu 12:32:19 AM 42.6475 -79.5614 87° East 476 548 37,000  Level Cleveland Center
Thu 12:33:19 AM 42.6561 -79.3806 86° East 476 548 37,000  Level Cleveland Center
Thu 12:34:19 AM 42.6644 -79.2025 86° East 476 548 37,000  Level Cleveland Center
Thu 12:35:19 AM 42.6686 -79.0189 88° East 476 548 37,000  Level Cleveland Center
Thu 12:36:19 AM 42.6764 -78.8381 87° East 476 548 37,000  Level Cleveland Center
Thu 12:37:19 AM 42.6817 -78.6542 88° East 476 548 37,000  Level Cleveland Center
Thu 12:38:19 AM 42.6889 -78.4675 87° East 481 554 37,000  Level Cleveland Center
Thu 12:39:19 AM 42.6939 -78.2867 88° East 481 554 37,000  Level Cleveland Center
Thu 12:40:19 AM 42.7003 -78.0997 87° East 481 554 37,000  Level Cleveland Center
Thu 12:41:19 AM 42.7067 -77.9217 87° East 481 554 37,000  Level Cleveland Center
Thu 12:42:19 AM 42.7125 -77.7264 88° East 476 548 37,000  Level Cleveland Center
Thu 12:43:19 AM 42.7144 -77.5539 89° East 482 555 37,000  Level Cleveland Center
Thu 12:44:19 AM 42.7192 -77.3500 88° East 492 566 37,000 -1,349 Level Cleveland Center
Thu 12:46:08 AM 42.7247 -77.0281 89° East 478 550 33,200 -2,414 Descending Boston Center
Thu 12:47:08 AM 42.7297 -76.8444 88° East 478 550 30,200 -2,100 Descending Boston Center
Thu 12:48:08 AM 42.7328 -76.6608 89° East 478 550 29,000 -600 Descending Boston Center
Thu 12:49:08 AM 42.7372 -76.4803 88° East 478 550 29,000  Level Boston Center
Thu 12:50:08 AM 42.7392 -76.3022 89° East 478 550 29,000 -50 Level Boston Center
Thu 12:51:08 AM 42.7403 -76.1411 89° East 478 550 28,900 -91 Descending Boston Center
Thu 12:52:20 AM 42.7481 -75.9661 86° East 468 539 28,800 -1,500 Descending Boston Center
Thu 12:53:20 AM 42.7589 -75.7461 86° East 474 545 25,600 -3,000 Descending Boston Center
Thu 12:54:20 AM 42.7664 -75.5483 87° East 476 548 22,800 -2,500 Descending Boston Center
Thu 12:55:20 AM 42.7728 -75.3875 87° East 451 519 20,600 -2,100 Descending Boston Center
Thu 12:56:20 AM 42.7789 -75.2267 87° East 430 495 18,600 -2,000 Descending Boston Center
Thu 12:57:20 AM 42.7847 -75.0769 87° East 414 476 16,600 -2,044 Descending Boston Center
Thu 12:57:51 AM 42.7864 -74.9978 88° East 408 470 15,500 -2,118 Descending Boston Center
Thu 12:58:45 AM 42.7936 -74.8650 86° East 384 442 13,600 -2,022 Descending Boston Center
Thu 12:59:20 AM 42.7972 -74.7831 87° East 381 438 12,500 -1,642 Descending Boston Center
Thu 01:00:20 AM 42.7956 -74.6642 91° East 370 426 11,000 -900 Descending Boston Center
Thu 01:01:20 AM 42.7939 -74.5253 91° East 339 390 10,700 -800 Descending Boston Center
Thu 01:02:20 AM 42.8000 -74.4208 85° East 314 361 9,400 -1,400 Descending Boston Center
Thu 01:03:20 AM 42.8061 -74.2967 86° East 304 350 7,900 -1,350 Descending Boston Center
Thu 01:04:20 AM 42.8100 -74.1947 87° East 298 343 6,700 -1,150 Descending Boston Center
Thu 01:05:20 AM 42.8136 -74.0986 87° East 288 331 5,600 -1,400 Descending Boston Center
Thu 01:05:50 AM 42.8167 -74.0253 87° East 280 322 4,600 -1,300 Descending Boston Center
Thu 01:06:20 AM 42.8214 -73.9886 80° East 282 325 4,300 -700 Descending Boston Center
Thu 01:06:50 AM 42.8222 -73.9261 89° East 260 299 3,900 -600 Descending Boston Center
Thu 01:07:20 AM 42.8244 -73.8981 84° East 261 300 3,700 -1,082 Descending Boston Center
Thu 01:07:51 AM 42.8294 -73.8500 82° East 187 215 2,800 -1,648 Descending Boston Center
Thu 01:08:51 AM 42.8111 -73.8069 120° Southeast 155 178 1,200 -1,091 Descending Boston Center
Thu 01:09:52 AM 42.7736 -73.8092 182° South 122 140 600 -590 Descending Boston Center

Login

Don't have an account? Register now (free) for customized features, flight alerts, and more!